Aérodrome :
LOGIN :

S'inscrire | Disclaimer

   EN    FR    IT 

 










Légende :    VFR   VFR Marginal   IFR   IFR Intensif   IFR Très Intensif
Visi : 
Plafond : 
>= 8 km
>= 3000ft
5 à 8 km
1000 à 3000 ft
1500m à 5 km
500 à 1000 ft
800 à 1500m
200 à 500 ft
< 800m
< 200 ft
Symboles :   Orages  Brouillard  Fortes neiges  Fortes précipitations  Vent > 20 kt
SIGMETs :   Divers  Orages  Givrage  Turbulence  Onde Orograph.  Cendres Volcan.







- Altitude de l'aérodrome : 160 ft
- Code IATA : LRT
- Voir les cartes d'approche


LFRH - Lorient Lann Bihoue

DERNIER METAR :
  • 130500Z AUTO 24009KT 9999 SCT027 SCT032 11/10 Q1022 TEMPO 3000 BR

METARs EXPIRÉS :
  • 130430Z AUTO 24008KT 9999 FEW027 11/09 Q1022 TEMPO 3000 BR
  • 130400Z AUTO 25008KT CAVOK 11/09 Q1022 TEMPO 3000 BR
  • 130330Z AUTO 25011KT 9999 FEW026 11/09 Q1021 TEMPO 3000 BR
  • 130300Z AUTO 25010KT 9999 SCT026 11/09 Q1021 TEMPO 3000 BR BKN018TCU
  • 130230Z AUTO 25011KT CAVOK 12/08 Q1021 TEMPO 3000 BR BKN018TCU

TAF TAF LFRH
Valide du 13 à 00h jusqu'au 14 à 00h UTC


122300Z 1300/1324 21012KT 9999 FEW025
TEMPO 1300/1304 22012G22KT 4000 -SHRA BKN018TCU
PROB30
TEMPO 1304/1309 23005KT 3000 BR
TEMPO 1309/1314 4000 SHRA BKN013TCU
TEMPO 1322/1324 15008KT 3000 BR BKN008
Pas de NOTAMs connus pour ce terrain.



MET'MAP, la Météo Aéronautique d'un coup d'oeil ! - Copyright ORBIFLY Décembre 2007 - Disclaimer

ORBIFLY MET'MAP TEAM :

Programmation & Développement : Alexandra Zaïnal
Conception & Développement : Baudouin d'Aumeries
Co-Programmation & Développement : Marc-Olivier Méhu
Soutien technique & logistique : Manuel Goepfert

Contact : metmap@orbifly.com




SOURCES & CREDITS :

   NOAA